sensor_id;sensor_type;location;lat;lon;timestamp;P1;durP1;ratioP1;P2;durP2;ratioP2
7205;SDS011;3644;53.480;10.004;2022-11-04T00:01:37;6.57;;;3.47;;
7205;SDS011;3644;53.480;10.004;2022-11-04T00:04:04;4.40;;;3.70;;
7205;SDS011;3644;53.480;10.004;2022-11-04T00:06:30;4.93;;;3.97;;
7205;SDS011;3644;53.480;10.004;2022-11-04T00:08:56;6.03;;;4.83;;
7205;SDS011;3644;53.480;10.004;2022-11-04T00:11:23;10.33;;;4.07;;
7205;SDS011;3644;53.480;10.004;2022-11-04T00:14:09;6.53;;;4.47;;
7205;SDS011;3644;53.480;10.004;2022-11-04T00:16:35;4.83;;;3.67;;
7205;SDS011;3644;53.480;10.004;2022-11-04T00:19:20;13.43;;;4.63;;
7205;SDS011;3644;53.480;10.004;2022-11-04T00:21:46;6.33;;;4.20;;
7205;SDS011;3644;53.480;10.004;2022-11-04T00:24:31;4.30;;;3.13;;
7205;SDS011;3644;53.480;10.004;2022-11-04T00:27:09;13.87;;;4.00;;
7205;SDS011;3644;53.480;10.004;2022-11-04T00:29:55;5.43;;;3.60;;
7205;SDS011;3644;53.480;10.004;2022-11-04T00:32:21;5.70;;;3.30;;
7205;SDS011;3644;53.480;10.004;2022-11-04T00:35:05;8.90;;;3.80;;
7205;SDS011;3644;53.480;10.004;2022-11-04T00:37:34;9.20;;;4.37;;
7205;SDS011;3644;53.480;10.004;2022-11-04T00:40:07;11.27;;;4.40;;
7205;SDS011;3644;53.480;10.004;2022-11-04T00:42:34;7.13;;;4.60;;
7205;SDS011;3644;53.480;10.004;2022-11-04T00:45:00;10.53;;;4.83;;
7205;SDS011;3644;53.480;10.004;2022-11-04T00:47:25;7.50;;;4.17;;
7205;SDS011;3644;53.480;10.004;2022-11-04T00:49:51;8.43;;;4.50;;
7205;SDS011;3644;53.480;10.004;2022-11-04T00:52:17;11.77;;;4.50;;
7205;SDS011;3644;53.480;10.004;2022-11-04T00:54:42;7.10;;;4.53;;
7205;SDS011;3644;53.480;10.004;2022-11-04T00:57:11;14.33;;;5.00;;
7205;SDS011;3644;53.480;10.004;2022-11-04T00:59:37;7.83;;;4.70;;
7205;SDS011;3644;53.480;10.004;2022-11-04T01:02:03;7.93;;;5.47;;
7205;SDS011;3644;53.480;10.004;2022-11-04T01:04:29;8.47;;;4.20;;
7205;SDS011;3644;53.480;10.004;2022-11-04T01:06:55;8.20;;;4.63;;
7205;SDS011;3644;53.480;10.004;2022-11-04T01:09:21;8.23;;;4.30;;
7205;SDS011;3644;53.480;10.004;2022-11-04T01:11:46;19.00;;;4.70;;
7205;SDS011;3644;53.480;10.004;2022-11-04T01:14:12;6.73;;;4.47;;
7205;SDS011;3644;53.480;10.004;2022-11-04T01:16:39;7.93;;;4.63;;
7205;SDS011;3644;53.480;10.004;2022-11-04T01:19:04;6.80;;;4.10;;
7205;SDS011;3644;53.480;10.004;2022-11-04T01:21:30;7.23;;;4.17;;
7205;SDS011;3644;53.480;10.004;2022-11-04T01:23:55;8.80;;;4.87;;
7205;SDS011;3644;53.480;10.004;2022-11-04T01:26:22;12.37;;;4.73;;
7205;SDS011;3644;53.480;10.004;2022-11-04T01:28:48;8.40;;;4.57;;
7205;SDS011;3644;53.480;10.004;2022-11-04T01:31:17;6.57;;;3.93;;
7205;SDS011;3644;53.480;10.004;2022-11-04T01:33:45;8.23;;;5.10;;
7205;SDS011;3644;53.480;10.004;2022-11-04T01:36:11;5.47;;;4.60;;
7205;SDS011;3644;53.480;10.004;2022-11-04T01:38:37;5.17;;;3.67;;
7205;SDS011;3644;53.480;10.004;2022-11-04T01:41:03;5.90;;;4.47;;
7205;SDS011;3644;53.480;10.004;2022-11-04T01:43:43;7.27;;;4.33;;
7205;SDS011;3644;53.480;10.004;2022-11-04T01:46:16;6.83;;;4.37;;
7205;SDS011;3644;53.480;10.004;2022-11-04T01:48:52;10.20;;;5.10;;
7205;SDS011;3644;53.480;10.004;2022-11-04T01:51:20;11.30;;;5.10;;
7205;SDS011;3644;53.480;10.004;2022-11-04T01:53:46;8.33;;;4.93;;
7205;SDS011;3644;53.480;10.004;2022-11-04T01:56:13;3.73;;;3.43;;
7205;SDS011;3644;53.480;10.004;2022-11-04T01:58:42;6.20;;;3.90;;
7205;SDS011;3644;53.480;10.004;2022-11-04T02:01:12;9.73;;;3.90;;
7205;SDS011;3644;53.480;10.004;2022-11-04T02:03:40;6.20;;;4.63;;
7205;SDS011;3644;53.480;10.004;2022-11-04T02:06:08;9.60;;;3.63;;
7205;SDS011;3644;53.480;10.004;2022-11-04T02:08:34;9.80;;;4.70;;
7205;SDS011;3644;53.480;10.004;2022-11-04T02:11:02;7.27;;;4.10;;
7205;SDS011;3644;53.480;10.004;2022-11-04T02:13:29;11.57;;;4.30;;
7205;SDS011;3644;53.480;10.004;2022-11-04T02:18:48;7.87;;;4.53;;
7205;SDS011;3644;53.480;10.004;2022-11-04T02:21:42;8.37;;;3.97;;
7205;SDS011;3644;53.480;10.004;2022-11-04T02:34:48;8.53;;;3.90;;
7205;SDS011;3644;53.480;10.004;2022-11-04T02:37:34;6.83;;;3.93;;
7205;SDS011;3644;53.480;10.004;2022-11-04T02:40:26;4.50;;;3.70;;
7205;SDS011;3644;53.480;10.004;2022-11-04T02:46:19;7.53;;;3.53;;
7205;SDS011;3644;53.480;10.004;2022-11-04T02:49:08;10.83;;;3.53;;
7205;SDS011;3644;53.480;10.004;2022-11-04T02:51:52;3.77;;;3.40;;
7205;SDS011;3644;53.480;10.004;2022-11-04T02:57:14;3.80;;;3.40;;
7205;SDS011;3644;53.480;10.004;2022-11-04T03:00:04;4.03;;;3.63;;
7205;SDS011;3644;53.480;10.004;2022-11-04T03:02:34;5.30;;;3.57;;
7205;SDS011;3644;53.480;10.004;2022-11-04T03:05:06;7.17;;;3.90;;
7205;SDS011;3644;53.480;10.004;2022-11-04T03:07:36;5.60;;;3.43;;
7205;SDS011;3644;53.480;10.004;2022-11-04T03:10:06;6.83;;;3.47;;
7205;SDS011;3644;53.480;10.004;2022-11-04T03:12:41;4.73;;;4.00;;
7205;SDS011;3644;53.480;10.004;2022-11-04T03:15:14;8.23;;;3.50;;
7205;SDS011;3644;53.480;10.004;2022-11-04T03:17:57;13.00;;;4.27;;
7205;SDS011;3644;53.480;10.004;2022-11-04T03:20:30;7.30;;;4.17;;
7205;SDS011;3644;53.480;10.004;2022-11-04T03:22:56;5.33;;;3.10;;
7205;SDS011;3644;53.480;10.004;2022-11-04T03:26:08;3.70;;;3.33;;
7205;SDS011;3644;53.480;10.004;2022-11-04T03:30:44;7.17;;;4.73;;
7205;SDS011;3644;53.480;10.004;2022-11-04T03:33:26;4.30;;;3.77;;
7205;SDS011;3644;53.480;10.004;2022-11-04T03:36:09;9.53;;;4.30;;
7205;SDS011;3644;53.480;10.004;2022-11-04T03:38:35;5.47;;;4.83;;
7205;SDS011;3644;53.480;10.004;2022-11-04T03:41:02;7.23;;;4.30;;
7205;SDS011;3644;53.480;10.004;2022-11-04T03:43:35;6.63;;;4.03;;
7205;SDS011;3644;53.480;10.004;2022-11-04T03:46:03;6.57;;;4.90;;
7205;SDS011;3644;53.480;10.004;2022-11-04T03:48:29;6.23;;;5.50;;
7205;SDS011;3644;53.480;10.004;2022-11-04T03:50:57;6.00;;;4.60;;
7205;SDS011;3644;53.480;10.004;2022-11-04T03:53:23;7.40;;;5.20;;
7205;SDS011;3644;53.480;10.004;2022-11-04T03:56:04;9.83;;;4.63;;
7205;SDS011;3644;53.480;10.004;2022-11-04T03:58:44;9.25;;;4.50;;
7205;SDS011;3644;53.480;10.004;2022-11-04T04:07:04;5.30;;;3.90;;
7205;SDS011;3644;53.480;10.004;2022-11-04T04:09:37;5.60;;;4.30;;
7205;SDS011;3644;53.480;10.004;2022-11-04T04:12:13;7.60;;;4.90;;
7205;SDS011;3644;53.480;10.004;2022-11-04T04:14:59;7.70;;;5.20;;
7205;SDS011;3644;53.480;10.004;2022-11-04T04:17:35;7.33;;;5.23;;
7205;SDS011;3644;53.480;10.004;2022-11-04T04:20:26;6.83;;;5.00;;
7205;SDS011;3644;53.480;10.004;2022-11-04T04:23:12;5.43;;;4.90;;
7205;SDS011;3644;53.480;10.004;2022-11-04T04:26:02;7.27;;;4.83;;
7205;SDS011;3644;53.480;10.004;2022-11-04T04:28:48;5.57;;;5.07;;
7205;SDS011;3644;53.480;10.004;2022-11-04T04:31:16;12.50;;;4.77;;
7205;SDS011;3644;53.480;10.004;2022-11-04T04:34:04;5.63;;;4.97;;
7205;SDS011;3644;53.480;10.004;2022-11-04T04:36:30;6.20;;;4.00;;
7205;SDS011;3644;53.480;10.004;2022-11-04T04:39:04;7.27;;;4.90;;
7205;SDS011;3644;53.480;10.004;2022-11-04T04:41:51;6.67;;;4.97;;
7205;SDS011;3644;53.480;10.004;2022-11-04T04:44:37;6.47;;;4.00;;
7205;SDS011;3644;53.480;10.004;2022-11-04T04:47:23;3.83;;;3.20;;
7205;SDS011;3644;53.480;10.004;2022-11-04T04:49:55;7.03;;;3.80;;
7205;SDS011;3644;53.480;10.004;2022-11-04T04:52:23;8.13;;;3.80;;
7205;SDS011;3644;53.480;10.004;2022-11-04T04:54:52;4.70;;;3.63;;
7205;SDS011;3644;53.480;10.004;2022-11-04T04:57:18;2.60;;;2.40;;
7205;SDS011;3644;53.480;10.004;2022-11-04T04:59:43;2.40;;;2.20;;
7205;SDS011;3644;53.480;10.004;2022-11-04T05:02:09;2.80;;;2.10;;
7205;SDS011;3644;53.480;10.004;2022-11-04T05:04:34;2.90;;;2.60;;
7205;SDS011;3644;53.480;10.004;2022-11-04T05:07:00;6.07;;;3.07;;
7205;SDS011;3644;53.480;10.004;2022-11-04T05:09:25;3.70;;;2.20;;
7205;SDS011;3644;53.480;10.004;2022-11-04T05:11:51;2.37;;;2.17;;
7205;SDS011;3644;53.480;10.004;2022-11-04T05:14:16;4.20;;;2.93;;
7205;SDS011;3644;53.480;10.004;2022-11-04T05:16:42;2.23;;;2.03;;
7205;SDS011;3644;53.480;10.004;2022-11-04T05:19:08;2.50;;;2.30;;
7205;SDS011;3644;53.480;10.004;2022-11-04T05:21:33;2.60;;;2.40;;
7205;SDS011;3644;53.480;10.004;2022-11-04T05:23:59;4.40;;;2.27;;
7205;SDS011;3644;53.480;10.004;2022-11-04T05:26:24;2.70;;;2.50;;
7205;SDS011;3644;53.480;10.004;2022-11-04T05:28:50;2.40;;;2.20;;
7205;SDS011;3644;53.480;10.004;2022-11-04T05:31:16;2.07;;;1.97;;
7205;SDS011;3644;53.480;10.004;2022-11-04T05:33:41;2.13;;;2.03;;
7205;SDS011;3644;53.480;10.004;2022-11-04T05:36:11;2.40;;;2.20;;
7205;SDS011;3644;53.480;10.004;2022-11-04T05:38:38;3.00;;;2.20;;
7205;SDS011;3644;53.480;10.004;2022-11-04T05:41:05;3.20;;;2.27;;
7205;SDS011;3644;53.480;10.004;2022-11-04T05:43:32;3.30;;;2.40;;
7205;SDS011;3644;53.480;10.004;2022-11-04T05:45:58;2.60;;;2.40;;
7205;SDS011;3644;53.480;10.004;2022-11-04T05:48:24;4.10;;;2.93;;
7205;SDS011;3644;53.480;10.004;2022-11-04T05:50:50;2.30;;;2.20;;
7205;SDS011;3644;53.480;10.004;2022-11-04T05:53:16;2.70;;;2.57;;
7205;SDS011;3644;53.480;10.004;2022-11-04T05:55:41;3.47;;;2.30;;
7205;SDS011;3644;53.480;10.004;2022-11-04T05:58:07;2.23;;;2.10;;
7205;SDS011;3644;53.480;10.004;2022-11-04T06:00:32;4.87;;;3.90;;
7205;SDS011;3644;53.480;10.004;2022-11-04T06:02:58;2.37;;;2.17;;
7205;SDS011;3644;53.480;10.004;2022-11-04T06:05:24;2.10;;;1.90;;
7205;SDS011;3644;53.480;10.004;2022-11-04T06:07:50;7.80;;;2.50;;
7205;SDS011;3644;53.480;10.004;2022-11-04T06:10:16;4.83;;;2.83;;
7205;SDS011;3644;53.480;10.004;2022-11-04T06:12:41;2.47;;;2.27;;
7205;SDS011;3644;53.480;10.004;2022-11-04T06:15:07;2.60;;;2.40;;
7205;SDS011;3644;53.480;10.004;2022-11-04T06:17:33;2.57;;;2.47;;
7205;SDS011;3644;53.480;10.004;2022-11-04T06:19:58;2.87;;;2.43;;
7205;SDS011;3644;53.480;10.004;2022-11-04T06:22:24;3.17;;;2.83;;
7205;SDS011;3644;53.480;10.004;2022-11-04T06:24:49;6.47;;;3.57;;
7205;SDS011;3644;53.480;10.004;2022-11-04T06:27:15;2.43;;;2.33;;
7205;SDS011;3644;53.480;10.004;2022-11-04T06:29:41;3.27;;;3.00;;
7205;SDS011;3644;53.480;10.004;2022-11-04T06:32:07;4.10;;;3.40;;
7205;SDS011;3644;53.480;10.004;2022-11-04T06:34:33;3.60;;;2.80;;
7205;SDS011;3644;53.480;10.004;2022-11-04T06:36:59;4.97;;;3.20;;
7205;SDS011;3644;53.480;10.004;2022-11-04T06:39:24;4.00;;;2.80;;
7205;SDS011;3644;53.480;10.004;2022-11-04T06:41:50;3.03;;;2.80;;
7205;SDS011;3644;53.480;10.004;2022-11-04T06:44:15;3.50;;;2.70;;
7205;SDS011;3644;53.480;10.004;2022-11-04T06:46:41;4.37;;;2.97;;
7205;SDS011;3644;53.480;10.004;2022-11-04T06:49:11;3.10;;;2.90;;
7205;SDS011;3644;53.480;10.004;2022-11-04T06:51:38;3.97;;;3.53;;
7205;SDS011;3644;53.480;10.004;2022-11-04T06:54:04;4.37;;;3.97;;
7205;SDS011;3644;53.480;10.004;2022-11-04T06:56:29;4.13;;;3.53;;
7205;SDS011;3644;53.480;10.004;2022-11-04T06:58:55;3.77;;;3.47;;
7205;SDS011;3644;53.480;10.004;2022-11-04T07:01:21;3.40;;;3.10;;
7205;SDS011;3644;53.480;10.004;2022-11-04T07:03:52;4.20;;;3.60;;
7205;SDS011;3644;53.480;10.004;2022-11-04T07:06:20;4.50;;;3.80;;
7205;SDS011;3644;53.480;10.004;2022-11-04T07:08:46;5.50;;;3.80;;
7205;SDS011;3644;53.480;10.004;2022-11-04T07:11:12;4.07;;;3.67;;
7205;SDS011;3644;53.480;10.004;2022-11-04T07:13:38;4.20;;;3.90;;
7205;SDS011;3644;53.480;10.004;2022-11-04T07:16:05;4.43;;;4.07;;
7205;SDS011;3644;53.480;10.004;2022-11-04T07:18:31;6.40;;;3.90;;
7205;SDS011;3644;53.480;10.004;2022-11-04T07:20:57;4.40;;;3.90;;
7205;SDS011;3644;53.480;10.004;2022-11-04T07:23:23;8.83;;;4.60;;
7205;SDS011;3644;53.480;10.004;2022-11-04T07:25:49;5.17;;;4.67;;
7205;SDS011;3644;53.480;10.004;2022-11-04T07:28:15;4.33;;;4.00;;
7205;SDS011;3644;53.480;10.004;2022-11-04T07:30:41;4.70;;;3.73;;
7205;SDS011;3644;53.480;10.004;2022-11-04T07:33:07;4.97;;;4.33;;
7205;SDS011;3644;53.480;10.004;2022-11-04T07:35:33;5.30;;;4.70;;
7205;SDS011;3644;53.480;10.004;2022-11-04T07:37:59;4.70;;;3.97;;
7205;SDS011;3644;53.480;10.004;2022-11-04T07:40:25;5.17;;;4.67;;
7205;SDS011;3644;53.480;10.004;2022-11-04T07:42:50;6.80;;;4.00;;
7205;SDS011;3644;53.480;10.004;2022-11-04T07:45:16;4.87;;;4.47;;
7205;SDS011;3644;53.480;10.004;2022-11-04T07:47:41;5.40;;;4.90;;
7205;SDS011;3644;53.480;10.004;2022-11-04T07:50:07;4.67;;;4.27;;
7205;SDS011;3644;53.480;10.004;2022-11-04T07:52:33;5.07;;;4.57;;
7205;SDS011;3644;53.480;10.004;2022-11-04T07:54:58;4.87;;;4.43;;
7205;SDS011;3644;53.480;10.004;2022-11-04T07:57:24;5.07;;;4.57;;
7205;SDS011;3644;53.480;10.004;2022-11-04T07:59:50;5.53;;;5.03;;
7205;SDS011;3644;53.480;10.004;2022-11-04T08:02:15;5.97;;;5.40;;
7205;SDS011;3644;53.480;10.004;2022-11-04T08:04:41;6.80;;;4.60;;
7205;SDS011;3644;53.480;10.004;2022-11-04T08:07:07;5.77;;;4.70;;
7205;SDS011;3644;53.480;10.004;2022-11-04T08:09:33;4.50;;;4.10;;
7205;SDS011;3644;53.480;10.004;2022-11-04T08:12:00;6.17;;;5.10;;
7205;SDS011;3644;53.480;10.004;2022-11-04T08:14:26;6.87;;;4.37;;
7205;SDS011;3644;53.480;10.004;2022-11-04T08:16:52;4.67;;;4.20;;
7205;SDS011;3644;53.480;10.004;2022-11-04T08:19:17;5.40;;;4.10;;
7205;SDS011;3644;53.480;10.004;2022-11-04T08:21:43;7.97;;;4.37;;
7205;SDS011;3644;53.480;10.004;2022-11-04T08:24:08;5.67;;;4.23;;
7205;SDS011;3644;53.480;10.004;2022-11-04T08:26:34;5.07;;;4.57;;
7205;SDS011;3644;53.480;10.004;2022-11-04T08:28:59;4.70;;;4.30;;
7205;SDS011;3644;53.480;10.004;2022-11-04T08:31:26;6.80;;;4.60;;
7205;SDS011;3644;53.480;10.004;2022-11-04T08:33:54;6.67;;;4.40;;
7205;SDS011;3644;53.480;10.004;2022-11-04T08:36:22;5.03;;;4.53;;
7205;SDS011;3644;53.480;10.004;2022-11-04T08:38:49;5.33;;;4.83;;
7205;SDS011;3644;53.480;10.004;2022-11-04T08:41:17;6.67;;;4.90;;
7205;SDS011;3644;53.480;10.004;2022-11-04T08:43:45;7.03;;;4.67;;
7205;SDS011;3644;53.480;10.004;2022-11-04T08:46:11;4.60;;;4.30;;
7205;SDS011;3644;53.480;10.004;2022-11-04T08:48:38;5.10;;;4.60;;
7205;SDS011;3644;53.480;10.004;2022-11-04T08:51:06;4.70;;;4.20;;
7205;SDS011;3644;53.480;10.004;2022-11-04T08:53:35;5.63;;;4.30;;
7205;SDS011;3644;53.480;10.004;2022-11-04T08:56:11;5.70;;;4.60;;
7205;SDS011;3644;53.480;10.004;2022-11-04T08:58:40;5.50;;;4.23;;
7205;SDS011;3644;53.480;10.004;2022-11-04T09:01:06;6.40;;;3.73;;
7205;SDS011;3644;53.480;10.004;2022-11-04T09:03:31;4.00;;;3.70;;
7205;SDS011;3644;53.480;10.004;2022-11-04T09:05:58;4.40;;;4.00;;
7205;SDS011;3644;53.480;10.004;2022-11-04T09:08:24;4.17;;;3.87;;
7205;SDS011;3644;53.480;10.004;2022-11-04T09:10:50;8.80;;;5.00;;
7205;SDS011;3644;53.480;10.004;2022-11-04T09:13:15;4.47;;;3.70;;
7205;SDS011;3644;53.480;10.004;2022-11-04T09:15:41;3.90;;;3.57;;
7205;SDS011;3644;53.480;10.004;2022-11-04T09:18:07;6.03;;;5.23;;
7205;SDS011;3644;53.480;10.004;2022-11-04T09:20:33;4.63;;;3.77;;
7205;SDS011;3644;53.480;10.004;2022-11-04T09:23:02;4.00;;;3.70;;
7205;SDS011;3644;53.480;10.004;2022-11-04T09:25:28;4.60;;;4.17;;
7205;SDS011;3644;53.480;10.004;2022-11-04T09:27:53;5.83;;;4.20;;
7205;SDS011;3644;53.480;10.004;2022-11-04T09:30:19;4.47;;;3.63;;
7205;SDS011;3644;53.480;10.004;2022-11-04T09:32:45;3.00;;;2.80;;
7205;SDS011;3644;53.480;10.004;2022-11-04T09:35:11;3.63;;;3.33;;
7205;SDS011;3644;53.480;10.004;2022-11-04T09:37:36;3.17;;;2.97;;
7205;SDS011;3644;53.480;10.004;2022-11-04T09:40:02;4.17;;;3.13;;
7205;SDS011;3644;53.480;10.004;2022-11-04T09:42:34;7.40;;;3.30;;
7205;SDS011;3644;53.480;10.004;2022-11-04T09:45:02;3.10;;;2.90;;
7205;SDS011;3644;53.480;10.004;2022-11-04T09:47:33;2.60;;;2.40;;
7205;SDS011;3644;53.480;10.004;2022-11-04T09:50:00;2.60;;;2.40;;
7205;SDS011;3644;53.480;10.004;2022-11-04T09:52:30;2.43;;;2.30;;
7205;SDS011;3644;53.480;10.004;2022-11-04T09:57:53;3.10;;;2.80;;
7205;SDS011;3644;53.480;10.004;2022-11-04T10:00:21;2.93;;;2.73;;
7205;SDS011;3644;53.480;10.004;2022-11-04T10:08:46;5.30;;;3.13;;
7205;SDS011;3644;53.480;10.004;2022-11-04T10:11:32;3.50;;;2.83;;
7205;SDS011;3644;53.480;10.004;2022-11-04T10:14:06;2.93;;;2.73;;
7205;SDS011;3644;53.480;10.004;2022-11-04T10:16:56;3.00;;;2.67;;
7205;SDS011;3644;53.480;10.004;2022-11-04T10:21:58;2.87;;;2.20;;
7205;SDS011;3644;53.480;10.004;2022-11-04T10:24:37;2.93;;;2.60;;
7205;SDS011;3644;53.480;10.004;2022-11-04T10:27:18;3.63;;;3.20;;
7205;SDS011;3644;53.480;10.004;2022-11-04T10:29:57;6.80;;;3.47;;
7205;SDS011;3644;53.480;10.004;2022-11-04T10:32:28;3.50;;;3.20;;
7205;SDS011;3644;53.480;10.004;2022-11-04T10:37:25;3.87;;;3.50;;
7205;SDS011;3644;53.480;10.004;2022-11-04T10:39:52;3.87;;;3.47;;
7205;SDS011;3644;53.480;10.004;2022-11-04T10:42:30;4.03;;;3.57;;
7205;SDS011;3644;53.480;10.004;2022-11-04T10:44:56;4.03;;;3.63;;
7205;SDS011;3644;53.480;10.004;2022-11-04T10:50:27;5.00;;;3.47;;
7205;SDS011;3644;53.480;10.004;2022-11-04T10:53:10;4.67;;;3.30;;
7205;SDS011;3644;53.480;10.004;2022-11-04T10:58:28;3.00;;;2.80;;
7205;SDS011;3644;53.480;10.004;2022-11-04T11:00:55;3.50;;;3.10;;
7205;SDS011;3644;53.480;10.004;2022-11-04T11:05:55;4.43;;;3.50;;
7205;SDS011;3644;53.480;10.004;2022-11-04T11:08:35;5.00;;;3.23;;
7205;SDS011;3644;53.480;10.004;2022-11-04T11:11:02;3.27;;;3.07;;
7205;SDS011;3644;53.480;10.004;2022-11-04T11:13:34;3.53;;;3.03;;
7205;SDS011;3644;53.480;10.004;2022-11-04T11:16:17;3.00;;;2.80;;
7205;SDS011;3644;53.480;10.004;2022-11-04T11:18:44;4.63;;;2.83;;
7205;SDS011;3644;53.480;10.004;2022-11-04T11:21:40;3.20;;;2.37;;
7205;SDS011;3644;53.480;10.004;2022-11-04T11:24:22;2.57;;;2.33;;
7205;SDS011;3644;53.480;10.004;2022-11-04T11:26:51;4.53;;;2.43;;
7205;SDS011;3644;53.480;10.004;2022-11-04T11:29:24;2.20;;;2.00;;
7205;SDS011;3644;53.480;10.004;2022-11-04T11:31:53;3.17;;;2.50;;
7205;SDS011;3644;53.480;10.004;2022-11-04T11:34:31;2.80;;;2.57;;
7205;SDS011;3644;53.480;10.004;2022-11-04T11:36:58;1.97;;;1.87;;
7205;SDS011;3644;53.480;10.004;2022-11-04T11:39:29;2.03;;;1.93;;
7205;SDS011;3644;53.480;10.004;2022-11-04T11:42:14;4.93;;;2.27;;
7205;SDS011;3644;53.480;10.004;2022-11-04T11:44:49;1.57;;;1.47;;
7205;SDS011;3644;53.480;10.004;2022-11-04T11:53:06;1.70;;;1.60;;
7205;SDS011;3644;53.480;10.004;2022-11-04T11:55:44;2.90;;;1.43;;
7205;SDS011;3644;53.480;10.004;2022-11-04T12:03:29;1.60;;;1.13;;
7205;SDS011;3644;53.480;10.004;2022-11-04T12:14:30;5.10;;;1.50;;
7205;SDS011;3644;53.480;10.004;2022-11-04T12:20:21;1.23;;;1.13;;
7205;SDS011;3644;53.480;10.004;2022-11-04T12:22:57;2.47;;;1.97;;
7205;SDS011;3644;53.480;10.004;2022-11-04T12:28:21;5.60;;;1.57;;
7205;SDS011;3644;53.480;10.004;2022-11-04T12:44:24;1.47;;;1.23;;
7205;SDS011;3644;53.480;10.004;2022-11-04T12:47:04;3.83;;;1.23;;
7205;SDS011;3644;53.480;10.004;2022-11-04T12:55:04;1.73;;;1.20;;
7205;SDS011;3644;53.480;10.004;2022-11-04T12:57:46;2.87;;;1.20;;
7205;SDS011;3644;53.480;10.004;2022-11-04T13:00:18;4.97;;;1.67;;
7205;SDS011;3644;53.480;10.004;2022-11-04T13:05:32;1.93;;;0.97;;
7205;SDS011;3644;53.480;10.004;2022-11-04T13:08:37;2.10;;;1.00;;
7205;SDS011;3644;53.480;10.004;2022-11-04T13:11:23;0.80;;;0.80;;
7205;SDS011;3644;53.480;10.004;2022-11-04T13:14:04;3.40;;;1.20;;
7205;SDS011;3644;53.480;10.004;2022-11-04T13:16:37;3.67;;;1.00;;
7205;SDS011;3644;53.480;10.004;2022-11-04T13:19:09;3.33;;;1.20;;
7205;SDS011;3644;53.480;10.004;2022-11-04T13:22:12;4.47;;;1.50;;
7205;SDS011;3644;53.480;10.004;2022-11-04T13:24:47;2.53;;;1.23;;
7205;SDS011;3644;53.480;10.004;2022-11-04T13:27:44;2.30;;;1.63;;
7205;SDS011;3644;53.480;10.004;2022-11-04T13:30:17;4.00;;;1.00;;
7205;SDS011;3644;53.480;10.004;2022-11-04T13:33:10;1.23;;;1.13;;
7205;SDS011;3644;53.480;10.004;2022-11-04T13:35:58;3.13;;;1.00;;
7205;SDS011;3644;53.480;10.004;2022-11-04T13:38:38;6.77;;;1.13;;
7205;SDS011;3644;53.480;10.004;2022-11-04T13:41:15;4.20;;;1.73;;
7205;SDS011;3644;53.480;10.004;2022-11-04T13:44:04;4.00;;;1.30;;
7205;SDS011;3644;53.480;10.004;2022-11-04T13:47:00;1.53;;;1.23;;
7205;SDS011;3644;53.480;10.004;2022-11-04T13:49:30;3.90;;;2.30;;
7205;SDS011;3644;53.480;10.004;2022-11-04T13:52:02;3.80;;;1.70;;
7205;SDS011;3644;53.480;10.004;2022-11-04T13:54:40;5.70;;;1.73;;
7205;SDS011;3644;53.480;10.004;2022-11-04T13:57:17;3.03;;;1.63;;
7205;SDS011;3644;53.480;10.004;2022-11-04T14:02:39;2.70;;;1.33;;
7205;SDS011;3644;53.480;10.004;2022-11-04T14:18:42;1.20;;;1.00;;
7205;SDS011;3644;53.480;10.004;2022-11-04T14:21:13;3.13;;;1.53;;
7205;SDS011;3644;53.480;10.004;2022-11-04T14:23:50;1.80;;;1.40;;
7205;SDS011;3644;53.480;10.004;2022-11-04T14:31:57;12.57;;;5.20;;
7205;SDS011;3644;53.480;10.004;2022-11-04T14:34:29;9.67;;;4.10;;
7205;SDS011;3644;53.480;10.004;2022-11-04T14:36:57;4.93;;;1.80;;
7205;SDS011;3644;53.480;10.004;2022-11-04T14:39:28;4.27;;;2.40;;
7205;SDS011;3644;53.480;10.004;2022-11-04T14:42:01;3.20;;;1.50;;
7205;SDS011;3644;53.480;10.004;2022-11-04T14:44:35;1.60;;;1.50;;
7205;SDS011;3644;53.480;10.004;2022-11-04T14:52:28;1.67;;;1.10;;
7205;SDS011;3644;53.480;10.004;2022-11-04T14:55:03;1.73;;;1.43;;
7205;SDS011;3644;53.480;10.004;2022-11-04T14:57:40;3.60;;;1.50;;
7205;SDS011;3644;53.480;10.004;2022-11-04T15:02:46;8.13;;;1.20;;
7205;SDS011;3644;53.480;10.004;2022-11-04T15:05:25;1.47;;;1.13;;
7205;SDS011;3644;53.480;10.004;2022-11-04T15:07:57;1.27;;;1.10;;
7205;SDS011;3644;53.480;10.004;2022-11-04T15:10:24;6.23;;;1.10;;
7205;SDS011;3644;53.480;10.004;2022-11-04T15:12:52;6.77;;;1.40;;
7205;SDS011;3644;53.480;10.004;2022-11-04T15:15:25;4.50;;;1.20;;
7205;SDS011;3644;53.480;10.004;2022-11-04T15:18:07;3.63;;;1.23;;
7205;SDS011;3644;53.480;10.004;2022-11-04T15:20:39;2.63;;;1.20;;
7205;SDS011;3644;53.480;10.004;2022-11-04T15:23:13;5.00;;;1.47;;
7205;SDS011;3644;53.480;10.004;2022-11-04T15:25:47;1.90;;;1.07;;
7205;SDS011;3644;53.480;10.004;2022-11-04T15:28:24;3.37;;;1.37;;
7205;SDS011;3644;53.480;10.004;2022-11-04T15:31:13;5.90;;;1.87;;
7205;SDS011;3644;53.480;10.004;2022-11-04T15:33:45;5.13;;;1.93;;
7205;SDS011;3644;53.480;10.004;2022-11-04T15:36:21;3.87;;;1.20;;
7205;SDS011;3644;53.480;10.004;2022-11-04T15:39:02;5.53;;;1.33;;
7205;SDS011;3644;53.480;10.004;2022-11-04T15:41:31;3.50;;;1.50;;
7205;SDS011;3644;53.480;10.004;2022-11-04T15:44:18;1.73;;;1.60;;
7205;SDS011;3644;53.480;10.004;2022-11-04T15:46:50;3.37;;;1.23;;
7205;SDS011;3644;53.480;10.004;2022-11-04T15:49:25;3.83;;;1.50;;
7205;SDS011;3644;53.480;10.004;2022-11-04T15:51:58;5.17;;;1.63;;
7205;SDS011;3644;53.480;10.004;2022-11-04T15:54:33;4.93;;;1.77;;
7205;SDS011;3644;53.480;10.004;2022-11-04T15:57:20;8.40;;;1.90;;
7205;SDS011;3644;53.480;10.004;2022-11-04T15:59:54;2.27;;;1.40;;
7205;SDS011;3644;53.480;10.004;2022-11-04T16:02:24;1.37;;;1.23;;
7205;SDS011;3644;53.480;10.004;2022-11-04T16:07:40;3.37;;;1.43;;
7205;SDS011;3644;53.480;10.004;2022-11-04T16:10:23;4.00;;;1.87;;
7205;SDS011;3644;53.480;10.004;2022-11-04T16:12:55;1.53;;;0.90;;
7205;SDS011;3644;53.480;10.004;2022-11-04T16:15:28;8.93;;;1.37;;
7205;SDS011;3644;53.480;10.004;2022-11-04T16:17:59;6.43;;;1.30;;
7205;SDS011;3644;53.480;10.004;2022-11-04T16:20:25;2.80;;;1.30;;
7205;SDS011;3644;53.480;10.004;2022-11-04T16:22:55;6.37;;;1.67;;
7205;SDS011;3644;53.480;10.004;2022-11-04T16:25:22;8.10;;;2.17;;
7205;SDS011;3644;53.480;10.004;2022-11-04T16:27:49;3.93;;;1.70;;
7205;SDS011;3644;53.480;10.004;2022-11-04T16:30:16;10.30;;;2.17;;
7205;SDS011;3644;53.480;10.004;2022-11-04T16:32:48;3.70;;;1.30;;
7205;SDS011;3644;53.480;10.004;2022-11-04T16:35:25;9.37;;;1.60;;
7205;SDS011;3644;53.480;10.004;2022-11-04T16:37:52;2.67;;;1.83;;
7205;SDS011;3644;53.480;10.004;2022-11-04T16:40:20;4.47;;;1.83;;
7205;SDS011;3644;53.480;10.004;2022-11-04T16:42:46;6.50;;;1.60;;
7205;SDS011;3644;53.480;10.004;2022-11-04T16:45:25;5.13;;;1.90;;
7205;SDS011;3644;53.480;10.004;2022-11-04T16:47:54;2.43;;;1.53;;
7205;SDS011;3644;53.480;10.004;2022-11-04T16:50:20;6.40;;;1.70;;
7205;SDS011;3644;53.480;10.004;2022-11-04T16:52:48;1.60;;;1.50;;
7205;SDS011;3644;53.480;10.004;2022-11-04T16:55:14;3.80;;;2.20;;
7205;SDS011;3644;53.480;10.004;2022-11-04T16:57:39;3.20;;;2.13;;
7205;SDS011;3644;53.480;10.004;2022-11-04T17:00:05;4.63;;;2.17;;
7205;SDS011;3644;53.480;10.004;2022-11-04T17:02:35;5.17;;;2.07;;
7205;SDS011;3644;53.480;10.004;2022-11-04T17:05:01;7.90;;;2.40;;
7205;SDS011;3644;53.480;10.004;2022-11-04T17:07:28;10.07;;;4.23;;
7205;SDS011;3644;53.480;10.004;2022-11-04T17:09:54;12.80;;;6.00;;
7205;SDS011;3644;53.480;10.004;2022-11-04T17:12:20;7.97;;;4.93;;
7205;SDS011;3644;53.480;10.004;2022-11-04T17:14:45;9.63;;;4.77;;
7205;SDS011;3644;53.480;10.004;2022-11-04T17:17:11;7.63;;;4.70;;
7205;SDS011;3644;53.480;10.004;2022-11-04T17:19:37;8.53;;;5.47;;
7205;SDS011;3644;53.480;10.004;2022-11-04T17:22:03;10.33;;;4.10;;
7205;SDS011;3644;53.480;10.004;2022-11-04T17:24:31;5.13;;;3.27;;
7205;SDS011;3644;53.480;10.004;2022-11-04T17:26:57;6.87;;;3.10;;
7205;SDS011;3644;53.480;10.004;2022-11-04T17:29:23;9.37;;;3.20;;
7205;SDS011;3644;53.480;10.004;2022-11-04T17:31:48;2.70;;;2.30;;
7205;SDS011;3644;53.480;10.004;2022-11-04T17:34:14;4.17;;;2.63;;